createdAt,value
2022-10-15T02:00:51.837Z,17.30
2022-10-15T02:01:12.494Z,17.10
2022-10-15T02:01:33.189Z,16.40
2022-10-15T02:01:56.189Z,16.60
2022-10-15T02:02:18.571Z,17.30
2022-10-15T02:02:39.154Z,17.10
2022-10-15T02:02:59.734Z,15.40
2022-10-15T02:03:20.316Z,17.60
2022-10-15T02:03:40.898Z,19.10
2022-10-15T02:04:01.485Z,18.20
2022-10-15T02:04:22.075Z,16.90
2022-10-15T02:04:42.652Z,16.30
2022-10-15T02:05:03.231Z,16.60
2022-10-15T02:05:23.814Z,15.60
2022-10-15T02:05:44.207Z,16.90
2022-10-15T02:06:04.809Z,16.10
2022-10-15T02:06:25.394Z,17.30
2022-10-15T02:06:45.979Z,16.80
2022-10-15T02:07:06.563Z,15.80
2022-10-15T02:07:27.146Z,17.00
2022-10-15T02:07:47.908Z,16.20
2022-10-15T02:08:08.488Z,17.90
2022-10-15T02:08:29.078Z,16.20
2022-10-15T02:08:49.660Z,16.20
2022-10-15T02:09:10.241Z,17.60
2022-10-15T02:09:30.823Z,17.80
2022-10-15T02:09:51.404Z,17.00
2022-10-15T02:10:11.988Z,16.90
2022-10-15T02:10:32.677Z,19.20
2022-10-15T02:10:53.249Z,17.10
2022-10-15T02:11:13.833Z,18.30
2022-10-15T02:11:34.413Z,16.60
2022-10-15T02:11:54.992Z,16.30
2022-10-15T02:12:15.572Z,15.90
2022-10-15T02:12:36.153Z,15.20
2022-10-15T02:12:56.738Z,17.80
2022-10-15T02:13:17.318Z,17.00
2022-10-15T02:13:37.899Z,16.40
2022-10-15T02:13:58.482Z,19.10
2022-10-15T02:14:19.062Z,18.60
2022-10-15T02:14:39.654Z,16.10
2022-10-15T02:15:00.232Z,17.10
2022-10-15T02:15:20.809Z,16.80
2022-10-15T02:15:41.388Z,17.80
2022-10-15T02:16:01.993Z,17.20
2022-10-15T02:16:22.566Z,17.10
2022-10-15T02:16:43.144Z,16.90
2022-10-15T02:17:03.725Z,15.10
2022-10-15T02:17:24.307Z,16.50
2022-10-15T02:17:44.887Z,17.80
2022-10-15T02:18:05.283Z,16.20
2022-10-15T02:18:25.868Z,18.70
2022-10-15T02:18:46.449Z,18.10
2022-10-15T02:19:07.031Z,16.10
2022-10-15T02:19:27.611Z,16.90
2022-10-15T02:19:48.353Z,18.20
2022-10-15T02:20:08.941Z,16.50
2022-10-15T02:20:29.334Z,17.10
2022-10-15T02:20:49.918Z,16.90
2022-10-15T02:21:10.499Z,16.10
2022-10-15T02:21:31.096Z,18.20
2022-10-15T02:21:51.493Z,17.60
2022-10-15T02:22:12.078Z,18.40
2022-10-15T02:22:32.655Z,18.50
2022-10-15T02:22:53.054Z,16.80
2022-10-15T02:23:13.638Z,16.60
2022-10-15T02:23:34.221Z,16.30
2022-10-15T02:23:54.804Z,17.40
2022-10-15T02:24:15.386Z,17.80
2022-10-15T02:24:35.971Z,16.40
2022-10-15T02:24:56.555Z,16.60
2022-10-15T02:25:17.139Z,17.60
2022-10-15T02:25:37.722Z,17.60
2022-10-15T02:25:58.118Z,16.10
2022-10-15T02:26:18.697Z,17.10
2022-10-15T02:26:39.301Z,17.30
2022-10-15T02:26:59.880Z,14.70
2022-10-15T02:27:20.468Z,17.00
2022-10-15T02:27:41.052Z,17.70
2022-10-15T02:28:01.636Z,16.90
2022-10-15T02:28:22.049Z,16.50
2022-10-15T02:28:42.688Z,16.90
2022-10-15T02:29:03.361Z,17.10
2022-10-15T02:29:23.974Z,17.80
2022-10-15T02:29:44.555Z,16.40
2022-10-15T02:30:05.138Z,15.30
2022-10-15T02:30:25.717Z,15.40
2022-10-15T02:30:46.120Z,15.60
2022-10-15T02:31:06.724Z,15.10
2022-10-15T02:31:27.289Z,14.70
2022-10-15T02:31:47.882Z,15.50
2022-10-15T02:32:08.460Z,13.90
2022-10-15T02:32:29.041Z,15.60
2022-10-15T02:32:49.633Z,15.70
2022-10-15T02:33:10.210Z,15.90
2022-10-15T02:33:30.601Z,17.10
2022-10-15T02:33:51.190Z,16.50
2022-10-15T02:34:11.771Z,16.70
2022-10-15T02:34:32.351Z,15.80
2022-10-15T02:34:52.935Z,16.90
2022-10-15T02:35:13.514Z,17.50
2022-10-15T02:35:34.103Z,14.30
2022-10-15T02:35:54.683Z,15.90
2022-10-15T02:36:15.268Z,14.90
2022-10-15T02:36:35.850Z,15.90
2022-10-15T02:36:56.491Z,14.40
2022-10-15T02:37:17.074Z,15.20
2022-10-15T02:37:37.653Z,15.40
2022-10-15T02:37:58.233Z,16.00
2022-10-15T02:38:18.630Z,17.80
2022-10-15T02:38:39.218Z,17.20
2022-10-15T02:38:59.801Z,17.50
2022-10-15T02:39:20.382Z,17.60
2022-10-15T02:39:40.965Z,16.10
2022-10-15T02:40:01.357Z,14.80
2022-10-15T02:40:21.942Z,15.50
2022-10-15T02:40:42.523Z,15.40
2022-10-15T02:41:03.101Z,15.90
2022-10-15T02:41:23.686Z,16.00
2022-10-15T02:41:44.273Z,16.50
2022-10-15T02:42:04.876Z,15.10
2022-10-15T02:42:25.666Z,14.70
2022-10-15T02:42:45.852Z,14.70
2022-10-15T02:43:06.441Z,15.40
2022-10-15T02:43:27.021Z,16.20
2022-10-15T02:43:47.605Z,16.70
2022-10-15T02:44:08.186Z,17.30
2022-10-15T02:44:28.762Z,16.50
2022-10-15T02:44:49.349Z,14.90
2022-10-15T02:45:09.931Z,14.00
2022-10-15T02:45:30.519Z,13.60
2022-10-15T02:45:50.919Z,15.20
2022-10-15T02:46:11.518Z,14.00
2022-10-15T02:46:32.081Z,14.70
2022-10-15T02:46:52.671Z,14.20
2022-10-15T02:47:13.309Z,17.70
2022-10-15T02:47:33.663Z,17.90
2022-10-15T02:47:54.245Z,15.40
2022-10-15T02:48:14.823Z,14.60
2022-10-15T02:48:35.410Z,17.20
2022-10-15T02:48:55.993Z,16.30
2022-10-15T02:49:16.572Z,15.10
2022-10-15T02:49:37.157Z,17.60
2022-10-15T02:49:57.743Z,15.80
2022-10-15T02:50:18.141Z,16.50
2022-10-15T02:50:38.722Z,16.70
2022-10-15T02:50:59.304Z,16.10
2022-10-15T02:51:19.888Z,17.00
2022-10-15T02:51:40.470Z,16.20
2022-10-15T02:52:01.048Z,14.90
2022-10-15T02:52:22.142Z,15.50
2022-10-15T02:52:42.906Z,17.50
2022-10-15T02:53:03.301Z,16.90
2022-10-15T02:53:23.882Z,16.20
2022-10-15T02:53:44.460Z,15.90
2022-10-15T02:54:05.041Z,16.70
2022-10-15T02:54:25.626Z,14.70
2022-10-15T02:54:46.019Z,15.20
2022-10-15T02:55:06.601Z,15.40
2022-10-15T02:55:27.182Z,13.20
2022-10-15T02:55:47.766Z,14.60
2022-10-15T02:56:08.161Z,16.40
2022-10-15T02:56:49.329Z,17.20
2022-10-15T02:57:09.912Z,13.70
2022-10-15T02:57:30.509Z,14.20
2022-10-15T02:57:51.096Z,15.00
2022-10-15T02:58:11.679Z,15.20
2022-10-15T02:58:32.260Z,14.60
2022-10-15T02:58:52.843Z,14.40
2022-10-15T02:59:13.422Z,17.00
2022-10-15T02:59:34.005Z,17.10
2022-10-15T02:59:54.765Z,16.40
2022-10-15T03:00:15.350Z,15.80
2022-10-15T03:00:35.743Z,15.30
2022-10-15T03:00:56.400Z,15.00
2022-10-15T03:01:17.066Z,17.00
2022-10-15T03:01:37.620Z,17.90
2022-10-15T03:01:58.200Z,15.90
2022-10-15T03:02:19.417Z,15.30
2022-10-15T03:02:40.084Z,13.80
2022-10-15T03:03:00.870Z,16.60
2022-10-15T03:03:21.538Z,19.10
2022-10-15T03:03:42.505Z,18.10
2022-10-15T03:04:03.086Z,18.20
2022-10-15T03:04:23.674Z,17.10
2022-10-15T03:04:44.255Z,16.20
2022-10-15T03:05:04.837Z,15.70
2022-10-15T03:05:25.499Z,16.80
2022-10-15T03:05:46.083Z,15.60
2022-10-15T03:06:06.664Z,17.30
2022-10-15T03:06:27.254Z,17.80
2022-10-15T03:06:47.835Z,18.20
2022-10-15T03:07:08.422Z,15.50
2022-10-15T03:07:29.017Z,16.50
2022-10-15T03:07:49.599Z,17.10
2022-10-15T03:08:10.180Z,19.60
2022-10-15T03:08:30.763Z,16.40
2022-10-15T03:08:51.345Z,16.10
2022-10-15T03:09:11.925Z,15.40
2022-10-15T03:09:32.508Z,16.20
2022-10-15T03:09:53.092Z,14.50
2022-10-15T03:10:13.488Z,16.90
2022-10-15T03:10:34.070Z,18.50
2022-10-15T03:10:54.650Z,18.10
2022-10-15T03:11:15.235Z,17.10
2022-10-15T03:11:35.818Z,16.20
2022-10-15T03:11:56.393Z,15.40
2022-10-15T03:12:16.968Z,16.40
2022-10-15T03:12:37.562Z,16.40
2022-10-15T03:12:58.141Z,16.10
2022-10-15T03:13:18.535Z,18.00
2022-10-15T03:13:39.116Z,17.50
2022-10-15T03:13:59.696Z,15.50
2022-10-15T03:14:20.328Z,16.00
2022-10-15T03:14:40.885Z,16.10
2022-10-15T03:15:01.473Z,15.40
2022-10-15T03:15:22.054Z,16.80
2022-10-15T03:15:42.633Z,16.20
2022-10-15T03:16:03.215Z,16.60
2022-10-15T03:16:23.829Z,17.10
2022-10-15T03:16:44.384Z,15.70
2022-10-15T03:17:04.966Z,14.30
2022-10-15T03:17:25.954Z,17.50
2022-10-15T03:17:46.817Z,16.80
2022-10-15T03:18:07.388Z,16.50
2022-10-15T03:18:27.989Z,18.00
2022-10-15T03:18:48.571Z,16.20
2022-10-15T03:19:09.151Z,16.80
2022-10-15T03:19:29.729Z,16.90
2022-10-15T03:19:50.309Z,16.40
2022-10-15T03:20:10.895Z,15.00
2022-10-15T03:20:31.488Z,15.90
2022-10-15T03:20:52.071Z,15.80
2022-10-15T03:21:12.654Z,15.00
2022-10-15T03:21:33.239Z,17.50
2022-10-15T03:21:53.821Z,16.80
2022-10-15T03:22:14.401Z,16.20
2022-10-15T03:22:35.016Z,17.40
2022-10-15T03:22:55.576Z,19.90
2022-10-15T03:23:16.156Z,18.20
2022-10-15T03:23:36.743Z,16.40
2022-10-15T03:23:57.324Z,17.20
2022-10-15T03:24:17.903Z,16.70
2022-10-15T03:24:38.487Z,15.50
2022-10-15T03:24:59.069Z,15.60
2022-10-15T03:25:19.652Z,17.20
2022-10-15T03:25:40.233Z,18.00
2022-10-15T03:26:00.818Z,16.60
2022-10-15T03:26:21.401Z,17.00
2022-10-15T03:26:41.979Z,16.10
2022-10-15T03:27:02.390Z,15.20
2022-10-15T03:27:23.229Z,14.90
2022-10-15T03:27:43.923Z,15.20
2022-10-15T03:28:04.508Z,17.40
2022-10-15T03:28:25.109Z,16.40
2022-10-15T03:28:45.734Z,14.10
2022-10-15T03:29:06.316Z,14.30
2022-10-15T03:29:26.895Z,14.80
2022-10-15T03:29:47.480Z,14.90
2022-10-15T03:30:08.062Z,15.60
2022-10-15T03:30:28.642Z,15.90
2022-10-15T03:30:49.224Z,15.60
2022-10-15T03:31:09.804Z,14.50
2022-10-15T03:31:30.225Z,16.30
2022-10-15T03:31:50.782Z,16.50
2022-10-15T03:32:11.364Z,17.70
2022-10-15T03:32:33.126Z,17.20
2022-10-15T03:32:56.153Z,16.80
2022-10-15T03:33:16.737Z,17.90
2022-10-15T03:33:37.325Z,16.10
2022-10-15T03:33:57.901Z,16.20
2022-10-15T03:34:18.482Z,16.00
2022-10-15T03:34:39.067Z,15.90
2022-10-15T03:34:59.648Z,15.20
2022-10-15T03:35:20.229Z,16.80
2022-10-15T03:35:40.811Z,15.30
2022-10-15T03:36:01.385Z,15.60
2022-10-15T03:36:21.792Z,15.40
2022-10-15T03:36:42.373Z,15.30
2022-10-15T03:37:02.764Z,16.30
2022-10-15T03:37:23.728Z,18.10
2022-10-15T03:37:44.408Z,17.30
2022-10-15T03:38:04.801Z,17.10
2022-10-15T03:38:25.382Z,16.60
2022-10-15T03:38:45.964Z,15.60
2022-10-15T03:39:06.546Z,14.50
2022-10-15T03:39:27.131Z,15.00
2022-10-15T03:39:47.716Z,16.80
2022-10-15T03:40:13.408Z,15.70
2022-10-15T03:40:28.697Z,17.50
2022-10-15T03:40:49.280Z,15.10
2022-10-15T03:41:09.871Z,15.90
2022-10-15T03:41:30.451Z,16.30
2022-10-15T03:41:51.033Z,17.30
2022-10-15T03:42:11.610Z,16.30
2022-10-15T03:42:32.187Z,15.50
2022-10-15T03:42:52.788Z,15.70
2022-10-15T03:43:13.367Z,13.80
2022-10-15T03:43:36.369Z,15.80
2022-10-15T03:43:54.342Z,15.70
2022-10-15T03:44:14.929Z,15.80
2022-10-15T03:44:35.512Z,16.50
2022-10-15T03:44:56.095Z,16.40
2022-10-15T03:45:16.681Z,16.10
2022-10-15T03:45:37.266Z,16.80
2022-10-15T03:45:57.846Z,15.80
2022-10-15T03:46:18.428Z,15.70
2022-10-15T03:46:39.030Z,15.80
2022-10-15T03:46:59.592Z,15.30
2022-10-15T03:47:20.177Z,15.80
2022-10-15T03:47:40.773Z,14.40
2022-10-15T03:48:01.350Z,15.00
2022-10-15T03:48:21.942Z,14.90
2022-10-15T03:48:42.340Z,15.90
2022-10-15T03:49:02.918Z,16.80
2022-10-15T03:49:23.500Z,18.10
2022-10-15T03:49:44.085Z,15.70
2022-10-15T03:50:04.668Z,14.90
2022-10-15T03:50:25.250Z,15.40
2022-10-15T03:50:45.876Z,14.80
2022-10-15T03:51:06.424Z,15.90
2022-10-15T03:51:30.698Z,15.30
2022-10-15T03:51:52.099Z,17.20
2022-10-15T03:52:12.498Z,16.20
2022-10-15T03:52:32.897Z,14.90
2022-10-15T03:52:53.310Z,17.80
2022-10-15T03:53:13.890Z,15.70
2022-10-15T03:53:34.472Z,17.70
2022-10-15T03:53:54.869Z,16.10
2022-10-15T03:54:15.447Z,15.30
2022-10-15T03:54:35.862Z,16.40
2022-10-15T03:54:56.437Z,19.00
2022-10-15T03:55:17.028Z,17.40
2022-10-15T03:55:37.599Z,14.90
2022-10-15T03:55:58.188Z,16.20
2022-10-15T03:56:18.772Z,16.40
2022-10-15T03:56:39.355Z,14.70
2022-10-15T03:56:59.933Z,16.70
2022-10-15T03:57:20.517Z,15.80
2022-10-15T03:57:41.103Z,14.50
2022-10-15T03:58:01.714Z,16.00
2022-10-15T03:58:22.283Z,14.70
2022-10-15T03:58:42.868Z,15.10
2022-10-15T03:59:03.455Z,16.90
2022-10-15T03:59:24.035Z,17.80
2022-10-15T04:00:05.252Z,14.50
2022-10-15T04:00:25.794Z,15.30
2022-10-15T04:00:46.423Z,15.10
2022-10-15T04:01:07.024Z,15.70
2022-10-15T04:01:27.680Z,16.60
2022-10-15T04:01:48.268Z,18.70
2022-10-15T04:02:08.834Z,15.90
2022-10-15T04:02:29.411Z,17.40
2022-10-15T04:02:50.020Z,16.10
2022-10-15T04:03:10.598Z,16.10
2022-10-15T04:03:31.178Z,18.40
2022-10-15T04:03:51.758Z,18.90
2022-10-15T04:04:12.156Z,17.30
2022-10-15T04:04:32.735Z,16.10
2022-10-15T04:04:53.317Z,16.30
2022-10-15T04:05:13.895Z,17.00
2022-10-15T04:05:34.480Z,16.90
2022-10-15T04:05:56.001Z,15.50
2022-10-15T04:06:19.156Z,16.50
2022-10-15T04:06:39.739Z,14.90
2022-10-15T04:07:00.142Z,14.70
2022-10-15T04:07:20.728Z,16.30
2022-10-15T04:07:41.311Z,15.70
2022-10-15T04:08:01.907Z,16.00
2022-10-15T04:08:22.488Z,15.10
2022-10-15T04:08:43.115Z,16.50
2022-10-15T04:09:03.676Z,16.50
2022-10-15T04:09:24.263Z,18.30
2022-10-15T04:09:44.838Z,17.60
2022-10-15T04:10:05.428Z,15.40
2022-10-15T04:10:25.822Z,17.20
2022-10-15T04:10:46.403Z,15.00
2022-10-15T04:11:06.988Z,16.00
2022-10-15T04:11:27.570Z,16.20
2022-10-15T04:11:48.154Z,14.20
2022-10-15T04:12:08.548Z,16.70
2022-10-15T04:12:28.942Z,14.20
2022-10-15T04:12:49.535Z,15.80
2022-10-15T04:13:09.939Z,15.50
2022-10-15T04:13:30.526Z,15.20
2022-10-15T04:13:51.106Z,16.80
2022-10-15T04:14:11.687Z,16.70
2022-10-15T04:14:32.274Z,15.70
2022-10-15T04:14:52.856Z,17.40
2022-10-15T04:15:13.438Z,17.40
2022-10-15T04:15:34.023Z,15.90
2022-10-15T04:15:54.604Z,15.90
2022-10-15T04:16:15.184Z,16.80
2022-10-15T04:16:35.766Z,14.30
2022-10-15T04:16:56.180Z,14.90
2022-10-15T04:17:17.644Z,16.00
2022-10-15T04:17:38.491Z,16.70
2022-10-15T04:17:59.091Z,16.50
2022-10-15T04:18:19.677Z,17.70
2022-10-15T04:18:40.257Z,15.70
2022-10-15T04:19:00.841Z,18.00
2022-10-15T04:19:21.424Z,17.10
2022-10-15T04:19:42.003Z,14.10
2022-10-15T04:20:02.595Z,14.80
2022-10-15T04:20:23.179Z,15.00
2022-10-15T04:20:43.757Z,17.70
2022-10-15T04:21:04.342Z,15.90
2022-10-15T04:21:24.924Z,16.60
2022-10-15T04:21:45.504Z,15.60
2022-10-15T04:22:06.088Z,15.00
2022-10-15T04:22:26.922Z,18.10
2022-10-15T04:22:47.598Z,18.50
2022-10-15T04:23:08.179Z,17.70
2022-10-15T04:23:28.766Z,16.20
2022-10-15T04:23:49.346Z,17.30
2022-10-15T04:24:09.942Z,16.20
2022-10-15T04:24:30.511Z,15.30
2022-10-15T04:24:51.104Z,14.60
2022-10-15T04:25:11.687Z,16.80
2022-10-15T04:25:32.274Z,17.70
2022-10-15T04:25:52.666Z,15.90
2022-10-15T04:26:13.256Z,15.50
2022-10-15T04:26:33.831Z,15.50
2022-10-15T04:26:54.411Z,16.70
2022-10-15T04:27:35.577Z,16.30
2022-10-15T04:27:56.179Z,16.40
2022-10-15T04:28:16.822Z,16.60
2022-10-15T04:28:37.218Z,15.00
2022-10-15T04:28:57.601Z,15.50
2022-10-15T04:29:18.141Z,15.00
2022-10-15T04:29:38.723Z,16.00
2022-10-15T04:29:59.304Z,18.20
2022-10-15T04:30:19.886Z,15.50
2022-10-15T04:30:40.469Z,16.80
2022-10-15T04:31:01.089Z,17.00
2022-10-15T04:31:21.634Z,15.10
2022-10-15T04:31:42.224Z,14.90
2022-10-15T04:32:02.835Z,14.20
2022-10-15T04:32:23.709Z,15.80
2022-10-15T04:32:43.788Z,16.10
2022-10-15T04:33:04.385Z,14.90
2022-10-15T04:33:24.969Z,16.50
2022-10-15T04:33:45.549Z,16.20
2022-10-15T04:34:06.134Z,17.30
2022-10-15T04:34:26.714Z,19.10
2022-10-15T04:34:47.294Z,16.00
2022-10-15T04:35:07.691Z,15.40
2022-10-15T04:35:28.273Z,14.40
2022-10-15T04:35:48.857Z,15.80
2022-10-15T04:36:09.477Z,17.60
2022-10-15T04:36:30.063Z,17.20
2022-10-15T04:36:50.680Z,17.80
2022-10-15T04:37:11.265Z,17.60
2022-10-15T04:37:31.850Z,16.90
2022-10-15T04:37:52.480Z,17.90
2022-10-15T04:38:13.061Z,18.20
2022-10-15T04:38:33.644Z,14.40
2022-10-15T04:38:54.228Z,16.20
2022-10-15T04:39:14.834Z,16.70
2022-10-15T04:39:35.391Z,16.60
2022-10-15T04:39:55.971Z,16.90
2022-10-15T04:40:16.557Z,15.30
2022-10-15T04:40:37.140Z,16.20
2022-10-15T04:40:57.724Z,16.10
2022-10-15T04:41:18.309Z,17.40
2022-10-15T04:41:38.902Z,18.60
2022-10-15T04:41:59.487Z,17.20
2022-10-15T04:42:20.065Z,15.50
2022-10-15T04:42:40.648Z,15.60
2022-10-15T04:43:01.244Z,15.50
2022-10-15T04:43:21.827Z,16.10
2022-10-15T04:43:42.407Z,16.60
2022-10-15T04:44:02.988Z,16.40
2022-10-15T04:44:23.584Z,16.20
2022-10-15T04:44:44.166Z,17.40
2022-10-15T04:45:04.746Z,16.20
2022-10-15T04:45:25.330Z,17.10
2022-10-15T04:45:45.913Z,14.60
2022-10-15T04:46:06.501Z,17.40
2022-10-15T04:46:27.080Z,17.40
2022-10-15T04:46:47.663Z,16.70
2022-10-15T04:47:08.262Z,16.90
2022-10-15T04:47:28.823Z,16.20
2022-10-15T04:47:49.414Z,16.20
2022-10-15T04:48:10.042Z,16.10
2022-10-15T04:48:30.587Z,16.20
2022-10-15T04:48:51.168Z,16.10
2022-10-15T04:49:11.752Z,16.60
2022-10-15T04:49:32.334Z,16.00
2022-10-15T04:49:52.915Z,15.70
2022-10-15T04:50:13.498Z,15.90
2022-10-15T04:50:34.093Z,16.10
2022-10-15T04:50:54.679Z,17.30
2022-10-15T04:51:15.257Z,14.40
2022-10-15T04:51:35.842Z,15.10
2022-10-15T04:51:56.433Z,16.00
2022-10-15T04:52:17.012Z,16.50
2022-10-15T04:52:37.595Z,16.00
2022-10-15T04:52:58.191Z,17.00
2022-10-15T04:53:18.582Z,15.90
2022-10-15T04:53:39.164Z,15.60
2022-10-15T04:53:59.746Z,17.60
2022-10-15T04:54:20.398Z,16.10
2022-10-15T04:54:40.989Z,16.60
2022-10-15T04:55:01.570Z,15.80
2022-10-15T04:55:22.150Z,15.20
2022-10-15T04:55:42.737Z,13.40
2022-10-15T04:56:03.315Z,16.40
2022-10-15T04:56:23.899Z,18.20
2022-10-15T04:56:44.477Z,16.00
2022-10-15T04:57:05.067Z,16.20
2022-10-15T04:57:26.097Z,16.70
2022-10-15T04:57:46.828Z,16.20
2022-10-15T04:58:07.421Z,16.00
2022-10-15T04:58:28.003Z,15.20
2022-10-15T04:58:48.589Z,15.90
2022-10-15T04:59:09.171Z,13.70
2022-10-15T04:59:29.765Z,15.50
2022-10-15T04:59:53.918Z,15.20
2022-10-15T05:00:10.755Z,13.20
2022-10-15T05:00:31.346Z,13.30
2022-10-15T05:00:51.932Z,15.00
2022-10-15T05:01:12.514Z,14.50
2022-10-15T05:01:33.091Z,14.80
2022-10-15T05:01:53.735Z,16.30
2022-10-15T05:02:14.459Z,15.50
2022-10-15T05:02:35.135Z,16.00
2022-10-15T05:02:55.692Z,17.10
2022-10-15T05:03:16.292Z,15.20
2022-10-15T05:03:38.698Z,15.80
2022-10-15T05:04:01.590Z,15.40
2022-10-15T05:04:22.039Z,13.90
2022-10-15T05:04:42.589Z,15.00
2022-10-15T05:05:03.167Z,15.50
2022-10-15T05:05:23.752Z,16.40
2022-10-15T05:05:44.334Z,18.10
2022-10-15T05:06:04.925Z,17.00
2022-10-15T05:06:25.504Z,16.40
2022-10-15T05:06:46.086Z,18.20
2022-10-15T05:07:06.679Z,18.00
2022-10-15T05:07:27.472Z,17.50
2022-10-15T05:07:48.075Z,17.80
2022-10-15T05:08:08.672Z,15.80
2022-10-15T05:08:29.255Z,15.20
2022-10-15T05:08:49.843Z,16.60
2022-10-15T05:09:10.417Z,16.40
2022-10-15T05:09:31.000Z,17.20
2022-10-15T05:09:51.586Z,15.80
2022-10-15T05:10:12.172Z,16.10
2022-10-15T05:10:32.757Z,14.20
2022-10-15T05:10:53.337Z,14.30
2022-10-15T05:11:13.921Z,16.00
2022-10-15T05:11:34.507Z,15.90
2022-10-15T05:11:55.086Z,17.00
2022-10-15T05:12:15.485Z,16.60
2022-10-15T05:12:36.108Z,15.40
2022-10-15T05:12:57.032Z,14.50
2022-10-15T05:13:17.682Z,16.00
2022-10-15T05:13:38.269Z,16.20
2022-10-15T05:13:58.846Z,16.60
2022-10-15T05:14:19.432Z,17.80
2022-10-15T05:14:40.034Z,16.60
2022-10-15T05:15:00.593Z,15.90
2022-10-15T05:15:21.175Z,15.80
2022-10-15T05:15:41.759Z,15.50
2022-10-15T05:16:02.341Z,16.70
2022-10-15T05:16:22.733Z,16.70
2022-10-15T05:16:43.313Z,15.70
2022-10-15T05:17:03.898Z,14.80
2022-10-15T05:17:25.021Z,16.00
2022-10-15T05:17:45.841Z,16.30
2022-10-15T05:18:06.432Z,15.20
2022-10-15T05:18:27.014Z,16.60
2022-10-15T05:18:47.594Z,15.40
2022-10-15T05:19:08.172Z,14.70
2022-10-15T05:19:28.755Z,16.70
2022-10-15T05:19:49.342Z,17.00
2022-10-15T05:20:09.918Z,16.20
2022-10-15T05:20:30.502Z,16.30
2022-10-15T05:20:51.087Z,15.30
2022-10-15T05:21:11.665Z,14.70
2022-10-15T05:21:32.245Z,16.60
2022-10-15T05:21:52.832Z,15.80
2022-10-15T05:22:13.417Z,14.60
2022-10-15T05:22:33.995Z,16.40
2022-10-15T05:22:54.574Z,18.00
2022-10-15T05:23:15.175Z,16.20
2022-10-15T05:23:35.753Z,15.80
2022-10-15T05:23:56.150Z,15.60
2022-10-15T05:24:16.734Z,16.70
2022-10-15T05:24:37.320Z,16.00
2022-10-15T05:24:57.898Z,13.20
2022-10-15T05:25:18.484Z,14.90
2022-10-15T05:25:39.063Z,14.90
2022-10-15T05:25:59.652Z,14.00
2022-10-15T05:26:20.235Z,15.00
2022-10-15T05:26:40.813Z,15.70
2022-10-15T05:27:03.051Z,15.70
2022-10-15T05:27:21.803Z,15.20
2022-10-15T05:27:42.203Z,15.40
2022-10-15T05:28:02.784Z,15.20
2022-10-15T05:28:23.454Z,14.90
2022-10-15T05:28:44.081Z,14.20
2022-10-15T05:29:04.746Z,16.10
2022-10-15T05:29:25.311Z,17.00
2022-10-15T05:29:45.896Z,17.50
2022-10-15T05:30:06.293Z,16.50
2022-10-15T05:30:26.877Z,15.80
2022-10-15T05:30:47.461Z,14.40
2022-10-15T05:31:08.050Z,15.60
2022-10-15T05:31:28.629Z,16.60
2022-10-15T05:31:49.216Z,15.30
2022-10-15T05:32:09.878Z,14.90
2022-10-15T05:32:30.462Z,15.20
2022-10-15T05:32:51.017Z,14.00
2022-10-15T05:33:11.614Z,14.40
2022-10-15T05:33:32.191Z,13.90
2022-10-15T05:33:52.772Z,13.90
2022-10-15T05:34:13.351Z,15.40
2022-10-15T05:34:33.933Z,17.10
2022-10-15T05:34:54.518Z,15.30
2022-10-15T05:35:15.100Z,16.00
2022-10-15T05:35:35.695Z,15.90
2022-10-15T05:35:56.260Z,17.30
2022-10-15T05:36:16.845Z,15.20
2022-10-15T05:36:37.436Z,15.50
2022-10-15T05:36:58.018Z,16.10
2022-10-15T05:37:18.612Z,15.10
2022-10-15T05:37:39.191Z,14.90
2022-10-15T05:37:59.773Z,14.30
2022-10-15T05:38:20.365Z,13.80
2022-10-15T05:38:40.944Z,15.10
2022-10-15T05:39:01.535Z,14.40
2022-10-15T05:39:22.109Z,13.70
2022-10-15T05:39:42.503Z,14.90
2022-10-15T05:40:03.081Z,12.90
2022-10-15T05:40:23.662Z,13.30
2022-10-15T05:40:44.241Z,14.40
2022-10-15T05:41:04.641Z,14.10
2022-10-15T05:41:25.035Z,15.10
2022-10-15T05:41:45.614Z,13.30
2022-10-15T05:42:06.201Z,13.90
2022-10-15T05:42:26.785Z,14.90
2022-10-15T05:42:47.394Z,14.80
2022-10-15T05:43:07.964Z,15.90
2022-10-15T05:43:28.557Z,15.40
2022-10-15T05:43:49.145Z,16.20
2022-10-15T05:44:09.724Z,14.10
2022-10-15T05:44:30.310Z,13.50
2022-10-15T05:44:50.891Z,15.60
2022-10-15T05:45:11.473Z,14.70
2022-10-15T05:45:32.054Z,13.60
2022-10-15T05:45:52.639Z,13.80
2022-10-15T05:46:13.219Z,15.00
2022-10-15T05:46:33.800Z,15.10
2022-10-15T05:46:54.195Z,14.20
2022-10-15T05:47:14.787Z,14.40
2022-10-15T05:47:35.379Z,14.10
2022-10-15T05:47:55.939Z,12.90
2022-10-15T05:48:16.542Z,12.50
2022-10-15T05:48:37.147Z,13.90
2022-10-15T05:48:57.734Z,14.10
2022-10-15T05:49:18.315Z,14.70
2022-10-15T05:49:38.898Z,14.10
2022-10-15T05:49:59.479Z,13.70
2022-10-15T05:50:19.881Z,15.60
2022-10-15T05:50:40.272Z,16.00
2022-10-15T05:51:00.855Z,14.40
2022-10-15T05:51:21.441Z,14.30
2022-10-15T05:51:42.092Z,13.20
2022-10-15T05:52:02.645Z,14.70
2022-10-15T05:52:23.561Z,14.00
2022-10-15T05:52:44.240Z,13.10
2022-10-15T05:53:04.820Z,12.00
2022-10-15T05:53:25.415Z,14.60
2022-10-15T05:53:45.995Z,15.50
2022-10-15T05:54:06.599Z,14.50
2022-10-15T05:54:26.991Z,13.40
2022-10-15T05:54:47.577Z,14.10
2022-10-15T05:55:07.970Z,14.70
2022-10-15T05:55:28.552Z,14.00
2022-10-15T05:55:49.135Z,14.40
2022-10-15T05:56:09.718Z,14.40
2022-10-15T05:56:30.123Z,14.10
2022-10-15T05:56:50.698Z,12.60
2022-10-15T05:57:11.276Z,15.50
2022-10-15T05:57:31.858Z,13.80
2022-10-15T05:57:52.468Z,12.40
2022-10-15T05:58:13.054Z,13.80
2022-10-15T05:58:36.483Z,14.40
2022-10-15T05:58:58.098Z,13.00
2022-10-15T05:59:18.683Z,12.50
2022-10-15T05:59:39.273Z,13.30
2022-10-15T05:59:59.843Z,13.00
2022-10-15T06:00:20.234Z,13.30
2022-10-15T06:00:40.630Z,13.30
2022-10-15T06:01:01.211Z,12.10
2022-10-15T06:01:21.790Z,12.30
2022-10-15T06:01:42.436Z,13.00
2022-10-15T06:02:03.132Z,14.80
2022-10-15T06:02:23.967Z,14.40
2022-10-15T06:02:44.931Z,14.70
2022-10-15T06:03:05.545Z,14.70
2022-10-15T06:03:26.120Z,13.20
2022-10-15T06:03:46.706Z,13.70
2022-10-15T06:04:07.287Z,12.30
2022-10-15T06:04:29.548Z,13.10
2022-10-15T06:04:52.392Z,13.40
2022-10-15T06:05:12.974Z,11.90
2022-10-15T06:05:33.557Z,13.10
2022-10-15T06:05:54.137Z,12.40
2022-10-15T06:06:14.719Z,14.20
2022-10-15T06:06:35.304Z,13.80
2022-10-15T06:06:55.889Z,15.20
2022-10-15T06:07:16.466Z,13.50
2022-10-15T06:07:37.052Z,12.30
2022-10-15T06:07:57.651Z,13.10
2022-10-15T06:08:18.045Z,11.80
2022-10-15T06:08:38.632Z,12.70
2022-10-15T06:08:59.210Z,14.60
2022-10-15T06:09:19.793Z,11.50
2022-10-15T06:09:40.196Z,13.30
2022-10-15T06:10:00.767Z,12.60
2022-10-15T06:10:21.348Z,13.50
2022-10-15T06:10:41.929Z,12.80
2022-10-15T06:11:05.294Z,13.10
2022-10-15T06:11:22.917Z,11.50
2022-10-15T06:11:43.506Z,13.20
2022-10-15T06:12:04.089Z,13.70
2022-10-15T06:12:24.673Z,14.30
2022-10-15T06:12:45.258Z,14.40
2022-10-15T06:13:05.863Z,14.80
2022-10-15T06:13:47.008Z,13.40
2022-10-15T06:14:07.591Z,12.40
2022-10-15T06:14:27.980Z,11.80
2022-10-15T06:14:48.378Z,11.40
2022-10-15T06:15:08.958Z,13.60
2022-10-15T06:15:29.543Z,14.20
2022-10-15T06:15:49.941Z,15.40
2022-10-15T06:16:10.326Z,12.90
2022-10-15T06:16:30.912Z,13.30
2022-10-15T06:16:51.492Z,15.10
2022-10-15T06:17:12.075Z,12.30
2022-10-15T06:17:32.692Z,13.40
2022-10-15T06:17:53.292Z,13.80
2022-10-15T06:18:13.867Z,12.60
2022-10-15T06:18:34.450Z,12.90
2022-10-15T06:18:55.036Z,13.10
2022-10-15T06:19:15.616Z,11.10
2022-10-15T06:19:36.195Z,11.00
2022-10-15T06:19:56.776Z,13.20
2022-10-15T06:20:17.359Z,12.20
2022-10-15T06:20:37.940Z,13.10
2022-10-15T06:20:58.525Z,13.00
2022-10-15T06:21:19.110Z,13.10
2022-10-15T06:21:39.692Z,14.30
2022-10-15T06:22:00.278Z,13.80
2022-10-15T06:22:20.857Z,12.80
2022-10-15T06:22:41.436Z,13.10
2022-10-15T06:23:02.019Z,13.50
2022-10-15T06:23:22.614Z,13.60
2022-10-15T06:23:43.007Z,12.10
2022-10-15T06:24:06.287Z,12.80
2022-10-15T06:24:23.998Z,11.90
2022-10-15T06:24:44.586Z,12.10
2022-10-15T06:25:05.165Z,12.70
2022-10-15T06:25:25.742Z,11.80
2022-10-15T06:25:46.136Z,11.80
2022-10-15T06:26:06.722Z,13.70
2022-10-15T06:26:27.112Z,12.90
2022-10-15T06:26:47.697Z,13.30
2022-10-15T06:27:08.276Z,12.50
2022-10-15T06:27:28.856Z,12.60